sensor_id;sensor_type;location;lat;lon;timestamp;P1;durP1;ratioP1;P2;durP2;ratioP2
77280;SDS011;66339;47.262;17.144;2023-02-20T00:00:14;2.12;;;1.10;;
77280;SDS011;66339;47.262;17.144;2023-02-20T00:02:46;1.30;;;1.00;;
77280;SDS011;66339;47.262;17.144;2023-02-20T00:05:15;1.70;;;1.10;;
77280;SDS011;66339;47.262;17.144;2023-02-20T00:07:50;1.25;;;0.90;;
77280;SDS011;66339;47.262;17.144;2023-02-20T00:10:17;1.52;;;0.80;;
77280;SDS011;66339;47.262;17.144;2023-02-20T00:12:44;1.35;;;1.00;;
77280;SDS011;66339;47.262;17.144;2023-02-20T00:15:14;1.37;;;1.10;;
77280;SDS011;66339;47.262;17.144;2023-02-20T00:17:42;1.52;;;0.90;;
77280;SDS011;66339;47.262;17.144;2023-02-20T00:20:18;1.95;;;1.12;;
77280;SDS011;66339;47.262;17.144;2023-02-20T00:22:50;2.28;;;0.90;;
77280;SDS011;66339;47.262;17.144;2023-02-20T00:25:18;1.20;;;0.80;;
77280;SDS011;66339;47.262;17.144;2023-02-20T00:27:49;1.15;;;0.98;;
77280;SDS011;66339;47.262;17.144;2023-02-20T00:30:21;1.05;;;0.85;;
77280;SDS011;66339;47.262;17.144;2023-02-20T00:32:52;1.77;;;1.10;;
77280;SDS011;66339;47.262;17.144;2023-02-20T00:35:25;1.62;;;1.02;;
77280;SDS011;66339;47.262;17.144;2023-02-20T00:37:54;1.33;;;0.90;;
77280;SDS011;66339;47.262;17.144;2023-02-20T00:40:27;1.92;;;1.02;;
77280;SDS011;66339;47.262;17.144;2023-02-20T00:43:00;1.83;;;1.10;;
77280;SDS011;66339;47.262;17.144;2023-02-20T00:45:30;1.67;;;0.90;;
77280;SDS011;66339;47.262;17.144;2023-02-20T00:47:56;1.48;;;1.00;;
77280;SDS011;66339;47.262;17.144;2023-02-20T00:50:26;1.60;;;1.00;;
77280;SDS011;66339;47.262;17.144;2023-02-20T00:52:59;1.00;;;0.77;;
77280;SDS011;66339;47.262;17.144;2023-02-20T00:55:26;1.15;;;0.90;;
77280;SDS011;66339;47.262;17.144;2023-02-20T00:57:56;1.58;;;0.90;;
77280;SDS011;66339;47.262;17.144;2023-02-20T01:00:27;0.95;;;0.80;;
77280;SDS011;66339;47.262;17.144;2023-02-20T01:03:00;1.00;;;0.80;;
77280;SDS011;66339;47.262;17.144;2023-02-20T01:05:30;1.00;;;0.90;;
77280;SDS011;66339;47.262;17.144;2023-02-20T01:08:00;2.55;;;1.00;;
77280;SDS011;66339;47.262;17.144;2023-02-20T01:10:27;1.85;;;0.98;;
77280;SDS011;66339;47.262;17.144;2023-02-20T01:12:59;2.10;;;0.90;;
77280;SDS011;66339;47.262;17.144;2023-02-20T01:15:29;0.80;;;0.73;;
77280;SDS011;66339;47.262;17.144;2023-02-20T01:17:56;1.23;;;1.00;;
77280;SDS011;66339;47.262;17.144;2023-02-20T01:20:23;1.10;;;0.85;;
77280;SDS011;66339;47.262;17.144;2023-02-20T01:22:56;1.77;;;0.98;;
77280;SDS011;66339;47.262;17.144;2023-02-20T01:25:26;2.47;;;1.00;;
77280;SDS011;66339;47.262;17.144;2023-02-20T01:27:53;1.17;;;0.73;;
77280;SDS011;66339;47.262;17.144;2023-02-20T01:30:20;2.00;;;1.10;;
77280;SDS011;66339;47.262;17.144;2023-02-20T01:32:46;1.20;;;0.85;;
77280;SDS011;66339;47.262;17.144;2023-02-20T01:35:19;0.85;;;0.80;;
77280;SDS011;66339;47.262;17.144;2023-02-20T01:37:46;1.17;;;0.82;;
77280;SDS011;66339;47.262;17.144;2023-02-20T01:40:21;1.00;;;0.88;;
77280;SDS011;66339;47.262;17.144;2023-02-20T01:42:57;0.82;;;0.75;;
77280;SDS011;66339;47.262;17.144;2023-02-20T01:47:54;1.05;;;0.70;;
77280;SDS011;66339;47.262;17.144;2023-02-20T01:50:58;2.15;;;0.80;;
77280;SDS011;66339;47.262;17.144;2023-02-20T01:53:20;1.02;;;0.80;;
77280;SDS011;66339;47.262;17.144;2023-02-20T01:55:58;0.82;;;0.80;;
77280;SDS011;66339;47.262;17.144;2023-02-20T01:58:40;1.15;;;0.82;;
77280;SDS011;66339;47.262;17.144;2023-02-20T02:01:14;0.90;;;0.73;;
77280;SDS011;66339;47.262;17.144;2023-02-20T02:03:44;1.73;;;0.70;;
77280;SDS011;66339;47.262;17.144;2023-02-20T02:06:23;1.02;;;0.93;;
77280;SDS011;66339;47.262;17.144;2023-02-20T02:08:50;1.00;;;0.80;;
77280;SDS011;66339;47.262;17.144;2023-02-20T02:11:28;0.77;;;0.77;;
77280;SDS011;66339;47.262;17.144;2023-02-20T02:14:01;0.98;;;0.80;;
77280;SDS011;66339;47.262;17.144;2023-02-20T02:16:43;0.77;;;0.70;;
77280;SDS011;66339;47.262;17.144;2023-02-20T02:19:26;1.67;;;0.90;;
77280;SDS011;66339;47.262;17.144;2023-02-20T02:25:30;1.05;;;0.70;;
77280;SDS011;66339;47.262;17.144;2023-02-20T02:36:47;1.50;;;0.80;;
77280;SDS011;66339;47.262;17.144;2023-02-20T02:39:28;1.05;;;0.80;;
77280;SDS011;66339;47.262;17.144;2023-02-20T02:47:52;0.65;;;0.65;;
77280;SDS011;66339;47.262;17.144;2023-02-20T02:52:55;0.95;;;0.85;;
77280;SDS011;66339;47.262;17.144;2023-02-20T02:55:25;0.82;;;0.80;;
77280;SDS011;66339;47.262;17.144;2023-02-20T02:57:54;1.00;;;0.60;;
77280;SDS011;66339;47.262;17.144;2023-02-20T03:00:26;1.75;;;0.90;;
77280;SDS011;66339;47.262;17.144;2023-02-20T03:05:57;1.48;;;1.00;;
77280;SDS011;66339;47.262;17.144;2023-02-20T03:08:40;0.80;;;0.68;;
77280;SDS011;66339;47.262;17.144;2023-02-20T03:11:12;0.80;;;0.77;;
77280;SDS011;66339;47.262;17.144;2023-02-20T03:13:46;1.12;;;0.85;;
77280;SDS011;66339;47.262;17.144;2023-02-20T03:16:18;1.45;;;0.98;;
77280;SDS011;66339;47.262;17.144;2023-02-20T03:18:54;0.85;;;0.70;;
77280;SDS011;66339;47.262;17.144;2023-02-20T03:21:27;0.88;;;0.70;;
77280;SDS011;66339;47.262;17.144;2023-02-20T03:23:58;1.90;;;1.10;;
77280;SDS011;66339;47.262;17.144;2023-02-20T03:26:31;1.30;;;0.80;;
77280;SDS011;66339;47.262;17.144;2023-02-20T03:29:05;0.70;;;0.70;;
77280;SDS011;66339;47.262;17.144;2023-02-20T03:31:44;1.12;;;0.70;;
77280;SDS011;66339;47.262;17.144;2023-02-20T03:34:19;0.70;;;0.70;;
77280;SDS011;66339;47.262;17.144;2023-02-20T03:37:02;0.80;;;0.80;;
77280;SDS011;66339;47.262;17.144;2023-02-20T03:39:36;1.65;;;0.80;;
77280;SDS011;66339;47.262;17.144;2023-02-20T03:42:11;0.98;;;0.70;;
77280;SDS011;66339;47.262;17.144;2023-02-20T03:47:18;0.75;;;0.70;;
77280;SDS011;66339;47.262;17.144;2023-02-20T03:49:55;0.85;;;0.77;;
77280;SDS011;66339;47.262;17.144;2023-02-20T03:52:28;0.95;;;0.70;;
77280;SDS011;66339;47.262;17.144;2023-02-20T03:54:55;1.23;;;0.85;;
77280;SDS011;66339;47.262;17.144;2023-02-20T03:57:33;0.60;;;0.60;;
77280;SDS011;66339;47.262;17.144;2023-02-20T04:02:41;0.80;;;0.73;;
77280;SDS011;66339;47.262;17.144;2023-02-20T04:05:16;0.82;;;0.70;;
77280;SDS011;66339;47.262;17.144;2023-02-20T04:12:51;1.73;;;0.70;;
77280;SDS011;66339;47.262;17.144;2023-02-20T04:15:23;1.17;;;0.70;;
77280;SDS011;66339;47.262;17.144;2023-02-20T04:18:30;1.27;;;0.70;;
77280;SDS011;66339;47.262;17.144;2023-02-20T04:20:54;1.17;;;0.90;;
77280;SDS011;66339;47.262;17.144;2023-02-20T04:23:27;0.80;;;0.70;;
77280;SDS011;66339;47.262;17.144;2023-02-20T04:26:04;1.27;;;0.80;;
77280;SDS011;66339;47.262;17.144;2023-02-20T04:28:42;1.15;;;0.85;;
77280;SDS011;66339;47.262;17.144;2023-02-20T04:31:11;1.35;;;0.80;;
77280;SDS011;66339;47.262;17.144;2023-02-20T04:36:19;0.73;;;0.70;;
77280;SDS011;66339;47.262;17.144;2023-02-20T04:38:51;1.00;;;0.80;;
77280;SDS011;66339;47.262;17.144;2023-02-20T04:41:24;0.85;;;0.70;;
77280;SDS011;66339;47.262;17.144;2023-02-20T04:44:00;3.22;;;0.82;;
77280;SDS011;66339;47.262;17.144;2023-02-20T04:46:30;1.15;;;0.60;;
77280;SDS011;66339;47.262;17.144;2023-02-20T04:49:02;0.60;;;0.60;;
77280;SDS011;66339;47.262;17.144;2023-02-20T04:51:32;1.98;;;0.85;;
77280;SDS011;66339;47.262;17.144;2023-02-20T04:54:08;0.80;;;0.60;;
77280;SDS011;66339;47.262;17.144;2023-02-20T04:56:38;2.12;;;0.77;;
77280;SDS011;66339;47.262;17.144;2023-02-20T04:59:08;1.17;;;0.60;;
77280;SDS011;66339;47.262;17.144;2023-02-20T05:01:38;0.80;;;0.70;;
77280;SDS011;66339;47.262;17.144;2023-02-20T05:04:08;1.52;;;0.80;;
77280;SDS011;66339;47.262;17.144;2023-02-20T05:06:42;1.37;;;0.65;;
77280;SDS011;66339;47.262;17.144;2023-02-20T05:09:13;1.12;;;0.80;;
77280;SDS011;66339;47.262;17.144;2023-02-20T05:11:48;0.90;;;0.73;;
77280;SDS011;66339;47.262;17.144;2023-02-20T05:14:19;1.90;;;0.80;;
77280;SDS011;66339;47.262;17.144;2023-02-20T05:16:54;0.68;;;0.65;;
77280;SDS011;66339;47.262;17.144;2023-02-20T05:19:27;1.70;;;0.70;;
77280;SDS011;66339;47.262;17.144;2023-02-20T05:22:00;0.88;;;0.60;;
77280;SDS011;66339;47.262;17.144;2023-02-20T05:24:27;0.80;;;0.75;;
77280;SDS011;66339;47.262;17.144;2023-02-20T05:27:01;1.35;;;0.80;;
77280;SDS011;66339;47.262;17.144;2023-02-20T05:29:33;3.12;;;0.80;;
77280;SDS011;66339;47.262;17.144;2023-02-20T05:32:00;1.40;;;0.73;;
77280;SDS011;66339;47.262;17.144;2023-02-20T05:34:27;1.48;;;0.90;;
77280;SDS011;66339;47.262;17.144;2023-02-20T05:36:58;8.60;;;1.05;;
77280;SDS011;66339;47.262;17.144;2023-02-20T05:39:33;5.07;;;0.88;;
77280;SDS011;66339;47.262;17.144;2023-02-20T05:42:03;1.00;;;0.80;;
77280;SDS011;66339;47.262;17.144;2023-02-20T05:44:31;1.20;;;0.65;;
77280;SDS011;66339;47.262;17.144;2023-02-20T05:47:04;2.60;;;0.68;;
77280;SDS011;66339;47.262;17.144;2023-02-20T05:49:38;1.98;;;0.80;;
77280;SDS011;66339;47.262;17.144;2023-02-20T05:52:13;4.45;;;1.00;;
77280;SDS011;66339;47.262;17.144;2023-02-20T05:54:44;3.53;;;0.90;;
77280;SDS011;66339;47.262;17.144;2023-02-20T05:57:17;0.80;;;0.70;;
77280;SDS011;66339;47.262;17.144;2023-02-20T05:59:44;4.95;;;1.10;;
77280;SDS011;66339;47.262;17.144;2023-02-20T06:02:11;7.18;;;1.17;;
77280;SDS011;66339;47.262;17.144;2023-02-20T06:04:48;2.53;;;0.80;;
77280;SDS011;66339;47.262;17.144;2023-02-20T06:07:16;5.43;;;1.33;;
77280;SDS011;66339;47.262;17.144;2023-02-20T06:09:43;8.52;;;1.23;;
77280;SDS011;66339;47.262;17.144;2023-02-20T06:12:10;4.90;;;1.40;;
77280;SDS011;66339;47.262;17.144;2023-02-20T06:14:37;9.55;;;1.67;;
77280;SDS011;66339;47.262;17.144;2023-02-20T06:17:03;5.65;;;1.52;;
77280;SDS011;66339;47.262;17.144;2023-02-20T06:19:30;11.50;;;1.80;;
77280;SDS011;66339;47.262;17.144;2023-02-20T06:21:57;5.20;;;1.90;;
77280;SDS011;66339;47.262;17.144;2023-02-20T06:24:24;15.68;;;4.15;;
77280;SDS011;66339;47.262;17.144;2023-02-20T06:26:51;12.05;;;5.45;;
77280;SDS011;66339;47.262;17.144;2023-02-20T06:29:18;10.27;;;4.70;;
77280;SDS011;66339;47.262;17.144;2023-02-20T06:31:46;9.00;;;3.22;;
77280;SDS011;66339;47.262;17.144;2023-02-20T06:34:13;11.10;;;2.90;;
77280;SDS011;66339;47.262;17.144;2023-02-20T06:36:41;11.00;;;3.05;;
77280;SDS011;66339;47.262;17.144;2023-02-20T06:39:09;11.10;;;2.60;;
77280;SDS011;66339;47.262;17.144;2023-02-20T06:41:38;8.50;;;2.58;;
77280;SDS011;66339;47.262;17.144;2023-02-20T06:44:07;7.03;;;2.58;;
77280;SDS011;66339;47.262;17.144;2023-02-20T06:46:39;7.30;;;2.72;;
77280;SDS011;66339;47.262;17.144;2023-02-20T06:49:06;13.80;;;2.47;;
77280;SDS011;66339;47.262;17.144;2023-02-20T06:51:33;5.65;;;1.90;;
77280;SDS011;66339;47.262;17.144;2023-02-20T06:54:00;4.18;;;2.15;;
77280;SDS011;66339;47.262;17.144;2023-02-20T06:56:32;7.65;;;2.17;;
77280;SDS011;66339;47.262;17.144;2023-02-20T06:59:11;9.48;;;2.40;;
77280;SDS011;66339;47.262;17.144;2023-02-20T07:01:44;5.65;;;1.90;;
77280;SDS011;66339;47.262;17.144;2023-02-20T07:04:16;8.65;;;2.10;;
77280;SDS011;66339;47.262;17.144;2023-02-20T07:06:53;6.05;;;1.98;;
77280;SDS011;66339;47.262;17.144;2023-02-20T07:09:25;10.02;;;2.20;;
77280;SDS011;66339;47.262;17.144;2023-02-20T07:14:28;4.57;;;1.80;;
77280;SDS011;66339;47.262;17.144;2023-02-20T07:17:26;5.80;;;2.10;;
77280;SDS011;66339;47.262;17.144;2023-02-20T07:19:55;4.70;;;1.90;;
77280;SDS011;66339;47.262;17.144;2023-02-20T07:22:25;6.22;;;1.80;;
77280;SDS011;66339;47.262;17.144;2023-02-20T07:24:57;7.62;;;2.28;;
77280;SDS011;66339;47.262;17.144;2023-02-20T07:27:29;7.62;;;2.10;;
77280;SDS011;66339;47.262;17.144;2023-02-20T07:30:00;9.88;;;2.22;;
77280;SDS011;66339;47.262;17.144;2023-02-20T07:32:30;8.40;;;2.25;;
77280;SDS011;66339;47.262;17.144;2023-02-20T07:35:00;10.95;;;2.15;;
77280;SDS011;66339;47.262;17.144;2023-02-20T07:37:33;10.38;;;2.25;;
77280;SDS011;66339;47.262;17.144;2023-02-20T07:40:00;6.47;;;2.10;;
77280;SDS011;66339;47.262;17.144;2023-02-20T07:42:31;11.35;;;2.50;;
77280;SDS011;66339;47.262;17.144;2023-02-20T07:44:58;8.15;;;2.20;;
77280;SDS011;66339;47.262;17.144;2023-02-20T07:47:28;6.10;;;1.92;;
77280;SDS011;66339;47.262;17.144;2023-02-20T07:49:55;10.13;;;2.42;;
77280;SDS011;66339;47.262;17.144;2023-02-20T07:52:25;7.15;;;2.37;;
77280;SDS011;66339;47.262;17.144;2023-02-20T07:54:59;8.10;;;2.28;;
77280;SDS011;66339;47.262;17.144;2023-02-20T07:57:29;10.05;;;1.98;;
77280;SDS011;66339;47.262;17.144;2023-02-20T08:00:02;9.63;;;2.22;;
77280;SDS011;66339;47.262;17.144;2023-02-20T08:02:30;5.85;;;1.70;;
77280;SDS011;66339;47.262;17.144;2023-02-20T08:04:57;10.32;;;2.40;;
77280;SDS011;66339;47.262;17.144;2023-02-20T08:07:25;6.97;;;2.22;;
77280;SDS011;66339;47.262;17.144;2023-02-20T08:09:54;7.60;;;1.92;;
77280;SDS011;66339;47.262;17.144;2023-02-20T08:12:22;13.38;;;1.95;;
77280;SDS011;66339;47.262;17.144;2023-02-20T08:14:51;10.27;;;2.15;;
77280;SDS011;66339;47.262;17.144;2023-02-20T08:17:18;6.28;;;2.03;;
77280;SDS011;66339;47.262;17.144;2023-02-20T08:19:48;6.80;;;2.00;;
77280;SDS011;66339;47.262;17.144;2023-02-20T08:22:19;9.05;;;2.20;;
77280;SDS011;66339;47.262;17.144;2023-02-20T08:24:53;5.97;;;2.12;;
77280;SDS011;66339;47.262;17.144;2023-02-20T08:27:23;10.10;;;1.75;;
77280;SDS011;66339;47.262;17.144;2023-02-20T08:29:53;8.40;;;2.20;;
77280;SDS011;66339;47.262;17.144;2023-02-20T08:32:22;8.43;;;2.23;;
77280;SDS011;66339;47.262;17.144;2023-02-20T08:34:49;10.27;;;2.08;;
77280;SDS011;66339;47.262;17.144;2023-02-20T08:37:17;9.00;;;2.25;;
77280;SDS011;66339;47.262;17.144;2023-02-20T08:39:46;5.57;;;1.90;;
77280;SDS011;66339;47.262;17.144;2023-02-20T08:42:16;6.65;;;2.00;;
77280;SDS011;66339;47.262;17.144;2023-02-20T08:44:43;8.68;;;2.00;;
77280;SDS011;66339;47.262;17.144;2023-02-20T08:47:10;9.18;;;2.17;;
77280;SDS011;66339;47.262;17.144;2023-02-20T08:49:37;13.93;;;2.60;;
77280;SDS011;66339;47.262;17.144;2023-02-20T08:52:05;8.20;;;2.20;;
77280;SDS011;66339;47.262;17.144;2023-02-20T08:54:32;6.00;;;2.25;;
77280;SDS011;66339;47.262;17.144;2023-02-20T08:56:59;13.32;;;2.47;;
77280;SDS011;66339;47.262;17.144;2023-02-20T08:59:25;9.40;;;1.80;;
77280;SDS011;66339;47.262;17.144;2023-02-20T09:01:56;10.00;;;2.28;;
77280;SDS011;66339;47.262;17.144;2023-02-20T09:04:22;11.18;;;2.25;;
77280;SDS011;66339;47.262;17.144;2023-02-20T09:06:50;9.65;;;1.98;;
77280;SDS011;66339;47.262;17.144;2023-02-20T09:09:20;10.55;;;2.40;;
77280;SDS011;66339;47.262;17.144;2023-02-20T09:11:47;7.32;;;1.58;;
77280;SDS011;66339;47.262;17.144;2023-02-20T09:14:18;5.18;;;1.90;;
77280;SDS011;66339;47.262;17.144;2023-02-20T09:16:50;9.18;;;2.50;;
77280;SDS011;66339;47.262;17.144;2023-02-20T09:19:17;7.47;;;1.75;;
77280;SDS011;66339;47.262;17.144;2023-02-20T09:21:45;10.85;;;2.28;;
77280;SDS011;66339;47.262;17.144;2023-02-20T09:24:12;11.48;;;1.92;;
77280;SDS011;66339;47.262;17.144;2023-02-20T09:26:39;11.18;;;2.42;;
77280;SDS011;66339;47.262;17.144;2023-02-20T09:29:09;9.27;;;2.12;;
77280;SDS011;66339;47.262;17.144;2023-02-20T09:31:42;8.30;;;1.75;;
77280;SDS011;66339;47.262;17.144;2023-02-20T09:34:18;10.82;;;2.10;;
77280;SDS011;66339;47.262;17.144;2023-02-20T09:36:46;12.10;;;2.17;;
77280;SDS011;66339;47.262;17.144;2023-02-20T09:39:16;4.87;;;1.73;;
77280;SDS011;66339;47.262;17.144;2023-02-20T09:44:41;6.57;;;1.75;;
77280;SDS011;66339;47.262;17.144;2023-02-20T09:50:25;6.70;;;2.00;;
77280;SDS011;66339;47.262;17.144;2023-02-20T09:53:46;12.30;;;1.87;;
77280;SDS011;66339;47.262;17.144;2023-02-20T09:56:15;9.38;;;1.80;;
77280;SDS011;66339;47.262;17.144;2023-02-20T09:59:48;7.62;;;1.65;;
77280;SDS011;66339;47.262;17.144;2023-02-20T10:01:55;12.00;;;1.60;;
77280;SDS011;66339;47.262;17.144;2023-02-20T10:04:46;10.57;;;1.92;;
77280;SDS011;66339;47.262;17.144;2023-02-20T10:07:33;8.98;;;1.60;;
77280;SDS011;66339;47.262;17.144;2023-02-20T10:21:46;6.82;;;1.77;;
77280;SDS011;66339;47.262;17.144;2023-02-20T10:30:11;9.52;;;1.90;;
77280;SDS011;66339;47.262;17.144;2023-02-20T10:32:45;7.32;;;1.48;;
77280;SDS011;66339;47.262;17.144;2023-02-20T10:38:11;9.20;;;1.77;;
77280;SDS011;66339;47.262;17.144;2023-02-20T10:40:46;7.35;;;1.62;;
77280;SDS011;66339;47.262;17.144;2023-02-20T10:43:21;7.03;;;1.60;;
77280;SDS011;66339;47.262;17.144;2023-02-20T10:46:08;3.95;;;1.37;;
77280;SDS011;66339;47.262;17.144;2023-02-20T10:52:36;8.90;;;1.60;;
77280;SDS011;66339;47.262;17.144;2023-02-20T10:55:27;6.40;;;1.83;;
77280;SDS011;66339;47.262;17.144;2023-02-20T10:58:15;3.40;;;1.35;;
77280;SDS011;66339;47.262;17.144;2023-02-20T11:00:58;6.45;;;1.50;;
77280;SDS011;66339;47.262;17.144;2023-02-20T11:04:00;6.97;;;1.52;;
77280;SDS011;66339;47.262;17.144;2023-02-20T11:06:39;5.87;;;1.50;;
77280;SDS011;66339;47.262;17.144;2023-02-20T11:09:12;6.05;;;1.95;;
77280;SDS011;66339;47.262;17.144;2023-02-20T11:11:44;6.45;;;1.37;;
77280;SDS011;66339;47.262;17.144;2023-02-20T11:14:17;6.35;;;1.65;;
77280;SDS011;66339;47.262;17.144;2023-02-20T11:17:24;8.77;;;1.75;;
77280;SDS011;66339;47.262;17.144;2023-02-20T11:19:56;11.48;;;1.95;;
77280;SDS011;66339;47.262;17.144;2023-02-20T11:28:23;3.58;;;1.37;;
77280;SDS011;66339;47.262;17.144;2023-02-20T11:31:04;4.65;;;1.23;;
77280;SDS011;66339;47.262;17.144;2023-02-20T11:33:41;6.62;;;1.40;;
77280;SDS011;66339;47.262;17.144;2023-02-20T11:36:13;4.22;;;1.50;;
77280;SDS011;66339;47.262;17.144;2023-02-20T11:38:46;5.03;;;1.40;;
77280;SDS011;66339;47.262;17.144;2023-02-20T11:41:35;4.95;;;1.73;;
77280;SDS011;66339;47.262;17.144;2023-02-20T11:44:24;5.18;;;1.20;;
77280;SDS011;66339;47.262;17.144;2023-02-20T11:47:16;4.75;;;1.55;;
77280;SDS011;66339;47.262;17.144;2023-02-20T11:50:08;3.53;;;1.40;;
77280;SDS011;66339;47.262;17.144;2023-02-20T11:52:59;3.62;;;1.30;;
77280;SDS011;66339;47.262;17.144;2023-02-20T11:55:32;5.93;;;1.27;;
77280;SDS011;66339;47.262;17.144;2023-02-20T11:58:18;4.12;;;1.40;;
77280;SDS011;66339;47.262;17.144;2023-02-20T12:00:50;3.10;;;1.20;;
77280;SDS011;66339;47.262;17.144;2023-02-20T12:03:24;2.90;;;0.95;;
77280;SDS011;66339;47.262;17.144;2023-02-20T12:05:55;2.42;;;1.17;;
77280;SDS011;66339;47.262;17.144;2023-02-20T12:11:07;4.45;;;1.20;;
77280;SDS011;66339;47.262;17.144;2023-02-20T12:13:48;2.87;;;1.20;;
77280;SDS011;66339;47.262;17.144;2023-02-20T12:19:10;6.07;;;1.30;;
77280;SDS011;66339;47.262;17.144;2023-02-20T12:22:02;3.28;;;1.17;;
77280;SDS011;66339;47.262;17.144;2023-02-20T12:24:48;5.93;;;1.62;;
77280;SDS011;66339;47.262;17.144;2023-02-20T12:30:40;4.12;;;1.30;;
77280;SDS011;66339;47.262;17.144;2023-02-20T12:33:37;2.35;;;1.27;;
77280;SDS011;66339;47.262;17.144;2023-02-20T12:36:23;5.85;;;1.52;;
77280;SDS011;66339;47.262;17.144;2023-02-20T12:42:05;2.45;;;1.15;;
77280;SDS011;66339;47.262;17.144;2023-02-20T12:48:00;1.92;;;1.10;;
77280;SDS011;66339;47.262;17.144;2023-02-20T12:50:45;2.50;;;1.20;;
77280;SDS011;66339;47.262;17.144;2023-02-20T12:58:29;3.92;;;1.20;;
77280;SDS011;66339;47.262;17.144;2023-02-20T13:01:19;2.80;;;1.02;;
77280;SDS011;66339;47.262;17.144;2023-02-20T13:04:06;3.83;;;0.95;;
77280;SDS011;66339;47.262;17.144;2023-02-20T13:06:50;2.20;;;1.00;;
77280;SDS011;66339;47.262;17.144;2023-02-20T13:10:02;3.03;;;1.02;;
77280;SDS011;66339;47.262;17.144;2023-02-20T13:12:34;3.00;;;1.10;;
77280;SDS011;66339;47.262;17.144;2023-02-20T13:18:00;2.62;;;1.20;;
77280;SDS011;66339;47.262;17.144;2023-02-20T13:20:42;2.55;;;0.90;;
77280;SDS011;66339;47.262;17.144;2023-02-20T13:25:56;2.83;;;1.20;;
77280;SDS011;66339;47.262;17.144;2023-02-20T13:28:32;3.75;;;1.20;;
77280;SDS011;66339;47.262;17.144;2023-02-20T13:33:50;1.62;;;0.75;;
77280;SDS011;66339;47.262;17.144;2023-02-20T13:42:46;1.48;;;0.80;;
77280;SDS011;66339;47.262;17.144;2023-02-20T13:44:59;2.20;;;1.15;;
77280;SDS011;66339;47.262;17.144;2023-02-20T13:47:47;2.12;;;0.80;;
77280;SDS011;66339;47.262;17.144;2023-02-20T13:50:27;2.37;;;0.93;;
77280;SDS011;66339;47.262;17.144;2023-02-20T13:52:59;4.32;;;1.15;;
77280;SDS011;66339;47.262;17.144;2023-02-20T13:55:31;2.40;;;0.90;;
77280;SDS011;66339;47.262;17.144;2023-02-20T13:58:05;2.55;;;1.00;;
77280;SDS011;66339;47.262;17.144;2023-02-20T14:03:24;1.73;;;1.10;;
77280;SDS011;66339;47.262;17.144;2023-02-20T14:06:05;2.75;;;1.00;;
77280;SDS011;66339;47.262;17.144;2023-02-20T14:08:39;1.58;;;0.98;;
77280;SDS011;66339;47.262;17.144;2023-02-20T14:11:26;2.90;;;1.00;;
77280;SDS011;66339;47.262;17.144;2023-02-20T14:13:58;1.60;;;1.00;;
77280;SDS011;66339;47.262;17.144;2023-02-20T14:16:38;2.42;;;1.10;;
77280;SDS011;66339;47.262;17.144;2023-02-20T14:21:53;2.30;;;1.23;;
77280;SDS011;66339;47.262;17.144;2023-02-20T14:24:26;1.95;;;0.85;;
77280;SDS011;66339;47.262;17.144;2023-02-20T14:26:56;3.92;;;1.10;;
77280;SDS011;66339;47.262;17.144;2023-02-20T14:29:24;2.72;;;0.98;;
77280;SDS011;66339;47.262;17.144;2023-02-20T14:31:55;1.62;;;1.15;;
77280;SDS011;66339;47.262;17.144;2023-02-20T14:34:42;2.83;;;1.37;;
77280;SDS011;66339;47.262;17.144;2023-02-20T14:37:24;5.07;;;1.00;;
77280;SDS011;66339;47.262;17.144;2023-02-20T14:40:27;1.73;;;0.90;;
77280;SDS011;66339;47.262;17.144;2023-02-20T14:43:17;2.08;;;0.95;;
77280;SDS011;66339;47.262;17.144;2023-02-20T14:48:30;4.05;;;1.10;;
77280;SDS011;66339;47.262;17.144;2023-02-20T14:53:40;2.60;;;1.50;;
77280;SDS011;66339;47.262;17.144;2023-02-20T14:56:12;3.70;;;1.62;;
77280;SDS011;66339;47.262;17.144;2023-02-20T14:58:44;2.80;;;1.15;;
77280;SDS011;66339;47.262;17.144;2023-02-20T15:01:13;3.60;;;1.50;;
77280;SDS011;66339;47.262;17.144;2023-02-20T15:03:56;3.08;;;1.40;;
77280;SDS011;66339;47.262;17.144;2023-02-20T15:06:32;3.28;;;1.40;;
77280;SDS011;66339;47.262;17.144;2023-02-20T15:09:06;5.28;;;1.92;;
77280;SDS011;66339;47.262;17.144;2023-02-20T15:11:56;5.45;;;1.70;;
77280;SDS011;66339;47.262;17.144;2023-02-20T15:14:25;4.78;;;1.77;;
77280;SDS011;66339;47.262;17.144;2023-02-20T15:19:52;7.53;;;2.08;;
77280;SDS011;66339;47.262;17.144;2023-02-20T15:22:21;8.00;;;2.00;;
77280;SDS011;66339;47.262;17.144;2023-02-20T15:24:52;3.85;;;1.85;;
77280;SDS011;66339;47.262;17.144;2023-02-20T15:27:21;9.10;;;1.80;;
77280;SDS011;66339;47.262;17.144;2023-02-20T15:32:42;3.53;;;1.87;;
77280;SDS011;66339;47.262;17.144;2023-02-20T15:35:22;6.50;;;2.05;;
77280;SDS011;66339;47.262;17.144;2023-02-20T15:37:55;7.78;;;1.58;;
77280;SDS011;66339;47.262;17.144;2023-02-20T15:40:28;7.85;;;1.67;;
77280;SDS011;66339;47.262;17.144;2023-02-20T15:43:04;7.55;;;1.62;;
77280;SDS011;66339;47.262;17.144;2023-02-20T15:45:58;8.57;;;1.67;;
77280;SDS011;66339;47.262;17.144;2023-02-20T15:48:28;5.00;;;2.00;;
77280;SDS011;66339;47.262;17.144;2023-02-20T15:50:57;3.95;;;1.52;;
77280;SDS011;66339;47.262;17.144;2023-02-20T15:53:28;3.67;;;1.50;;
77280;SDS011;66339;47.262;17.144;2023-02-20T15:55:57;7.45;;;1.42;;
77280;SDS011;66339;47.262;17.144;2023-02-20T15:58:32;2.55;;;1.50;;
77280;SDS011;66339;47.262;17.144;2023-02-20T16:01:08;5.60;;;1.67;;
77280;SDS011;66339;47.262;17.144;2023-02-20T16:03:37;5.22;;;1.77;;
77280;SDS011;66339;47.262;17.144;2023-02-20T16:06:16;2.78;;;1.48;;
77280;SDS011;66339;47.262;17.144;2023-02-20T16:08:44;2.62;;;1.58;;
77280;SDS011;66339;47.262;17.144;2023-02-20T16:11:14;5.65;;;2.10;;
77280;SDS011;66339;47.262;17.144;2023-02-20T16:13:42;8.95;;;2.00;;
77280;SDS011;66339;47.262;17.144;2023-02-20T16:16:17;3.45;;;1.85;;
77280;SDS011;66339;47.262;17.144;2023-02-20T16:18:51;6.87;;;2.00;;
77280;SDS011;66339;47.262;17.144;2023-02-20T16:21:22;6.37;;;2.60;;
77280;SDS011;66339;47.262;17.144;2023-02-20T16:23:53;8.50;;;2.33;;
77280;SDS011;66339;47.262;17.144;2023-02-20T16:26:27;9.77;;;2.80;;
77280;SDS011;66339;47.262;17.144;2023-02-20T16:29:07;3.87;;;2.67;;
77280;SDS011;66339;47.262;17.144;2023-02-20T16:34:32;4.62;;;2.45;;
77280;SDS011;66339;47.262;17.144;2023-02-20T16:37:00;7.62;;;2.53;;
77280;SDS011;66339;47.262;17.144;2023-02-20T16:39:30;4.68;;;2.70;;
77280;SDS011;66339;47.262;17.144;2023-02-20T16:42:00;9.00;;;2.60;;
77280;SDS011;66339;47.262;17.144;2023-02-20T16:44:41;4.65;;;2.35;;
77280;SDS011;66339;47.262;17.144;2023-02-20T16:47:10;6.40;;;2.62;;
77280;SDS011;66339;47.262;17.144;2023-02-20T16:49:51;5.60;;;2.40;;
77280;SDS011;66339;47.262;17.144;2023-02-20T16:52:40;6.68;;;2.70;;
77280;SDS011;66339;47.262;17.144;2023-02-20T16:55:15;6.90;;;2.40;;
77280;SDS011;66339;47.262;17.144;2023-02-20T16:57:47;9.88;;;3.08;;
77280;SDS011;66339;47.262;17.144;2023-02-20T17:00:15;7.80;;;2.90;;
77280;SDS011;66339;47.262;17.144;2023-02-20T17:02:47;7.55;;;2.72;;
77280;SDS011;66339;47.262;17.144;2023-02-20T17:05:14;5.80;;;2.80;;
77280;SDS011;66339;47.262;17.144;2023-02-20T17:07:41;6.53;;;2.90;;
77280;SDS011;66339;47.262;17.144;2023-02-20T17:10:11;3.97;;;2.30;;
77280;SDS011;66339;47.262;17.144;2023-02-20T17:12:38;9.63;;;2.83;;
77280;SDS011;66339;47.262;17.144;2023-02-20T17:15:05;4.57;;;2.55;;
77280;SDS011;66339;47.262;17.144;2023-02-20T17:17:40;4.80;;;2.47;;
77280;SDS011;66339;47.262;17.144;2023-02-20T17:20:09;4.72;;;2.50;;
77280;SDS011;66339;47.262;17.144;2023-02-20T17:22:39;4.28;;;2.75;;